Flight Track Log - Related Links

Times and Time Zones

All times are in EDT time to prevent confusion due to time zone crossing. See the VIR301 flight status page for this flight to view local times or setup timezone preferences in your user account.

Time Position Orientation Groundspeed Altitude Reporting Facility
EDT Latitude Longitude Course Direction KTS MPH feet Rate Location/Type
Fri 03:37:00 AM 28.5640 77.0800 North  Level FlightAware ADS-B
Fri 03:40:09 AM 28.5630 77.0930 95° East 217 Level FlightAware ADS-B
Fri 03:40:58 AM 28.5620 77.0980 103° East 321 Level FlightAware ADS-B
Fri 03:41:19 AM 28.5620 77.1000 90° East 367 Level FlightAware ADS-B
Fri 03:43:07 AM 28.5590 77.1120 106° East 391 Level FlightAware ADS-B
Fri 03:43:30 AM 28.5590 77.1140 90° East 589 Level FlightAware ADS-B
Fri 03:44:30 AM 28.5570 77.1210 108° East 660 Level FlightAware ADS-B
Fri 03:44:53 AM 28.5570 77.1230 90° East 962 Level FlightAware ADS-B
Fri 03:45:28 AM 28.5590 77.1220 336° Northwest 1,167 Level FlightAware ADS-B
Fri 03:45:54 AM 28.5590 77.1200 270° West 1,726 Level FlightAware ADS-B
Fri 03:46:41 AM 28.5700 77.0750 286° West 179 206 2,100 2,560 Climbing FlightAware ADS-B
Fri 03:47:09 AM 28.5760 77.0480 284° West 181 208 3,200 1,527 Climbing FlightAware ADS-B
Fri 03:47:36 AM 28.5810 77.0240 283° West 202 232 3,500 471 Climbing FlightAware ADS-B
Fri 03:48:00 AM 28.5860 77.0020 285° West 225 259 3,600 906 Climbing FlightAware ADS-B
Fri 03:48:29 AM 28.5960 76.9580 285° West 262 302 4,300 1,895 Climbing FlightAware ADS-B
Fri 03:48:57 AM 28.6050 76.9210 285° West 264 304 5,400 2,316 Climbing FlightAware ADS-B
Fri 03:49:26 AM 28.6110 76.8820 280° West 269 310 6,500 2,000 Climbing FlightAware ADS-B
Fri 03:49:42 AM 28.6120 76.8590 273° West 277 319 6,900 1,953 Climbing FlightAware ADS-B
Fri 03:50:09 AM 28.6140 76.8180 273° West 284 327 7,900 2,291 Climbing FlightAware ADS-B
Fri 03:50:37 AM 28.6160 76.7750 273° West 283 326 9,000 2,211 Climbing FlightAware ADS-B
Fri 03:51:06 AM 28.6180 76.7340 273° West 287 330 10,000 1,607 Climbing FlightAware ADS-B
Fri 03:51:33 AM 28.6240 76.6940 280° West 300 345 10,500 971 Climbing FlightAware ADS-B
Fri 03:52:14 AM 28.6550 76.6390 303° West 335 386 11,100 878 Climbing FlightAware ADS-B
Fri 03:52:55 AM 28.6850 76.5840 302° West 357 411 11,700 1,793 Climbing FlightAware ADS-B
Fri 03:53:41 AM 28.7340 76.4960 302° West 360 414 13,700 2,276 Climbing FlightAware ADS-B
Fri 03:54:22 AM 28.7710 76.4280 302° West 367 422 15,000 1,852 Climbing FlightAware ADS-B
Fri 03:55:02 AM 28.8070 76.3620 302° West 372 428 16,200 1,571 Climbing FlightAware ADS-B
Fri 03:55:46 AM 28.8480 76.2890 303° West 384 442 17,200 1,500 Climbing FlightAware ADS-B
Fri 03:56:42 AM 28.8970 76.1990 302° West 385 443 18,700 1,327 Climbing FlightAware ADS-B
Fri 03:57:30 AM 28.9310 76.1370 302° West 391 450 19,500 1,469 Climbing FlightAware ADS-B
Fri 03:58:20 AM 28.9950 76.0180 302° West 399 459 21,100 1,565 Climbing FlightAware ADS-B
Fri 03:59:02 AM 29.0370 75.9410 302° West 409 471 21,900 1,125 Climbing FlightAware ADS-B
Fri 03:59:40 AM 29.0750 75.8710 302° West 414 476 22,600 1,200 Climbing FlightAware ADS-B
Fri 04:00:22 AM 29.1180 75.7920 302° West 417 480 23,500 1,390 Climbing FlightAware ADS-B
Fri 04:01:02 AM 29.1580 75.7170 301° West 415 478 24,500 1,185 Climbing FlightAware ADS-B
Fri 04:01:43 AM 29.1950 75.6480 302° West 418 481 25,100 1,215 Climbing FlightAware ADS-B
Fri 04:02:21 AM 29.2360 75.5820 305° West 412 474 26,100 1,341 Climbing FlightAware ADS-B
Fri 04:03:08 AM 29.3060 75.4980 314° West 415 478 27,000 1,103 Climbing FlightAware ADS-B
Fri 04:03:48 AM 29.3660 75.4470 323° Northwest 413 475 27,700 1,071 Climbing FlightAware ADS-B
Fri 04:04:32 AM 29.4400 75.4020 332° Northwest 413 475 28,500 940 Climbing FlightAware ADS-B
Fri 04:05:11 AM 29.5110 75.3730 340° North 417 480 29,000 495 Climbing FlightAware ADS-B
Fri 04:06:09 AM 29.6130 75.3490 348° North 421 484 29,300 480 Climbing FlightAware ADS-B
Fri 04:06:51 AM 29.7050 75.3380 354° North 435 501 29,800 467 Climbing FlightAware ADS-B
Fri 04:07:39 AM 29.7970 75.3240 352° North 441 507 30,000 125 Climbing FlightAware ADS-B
Fri 04:08:27 AM 29.8790 75.3100 352° North 441 507 30,000  Level FlightAware ADS-B
Fri 04:09:03 AM 29.9410 75.3000 352° North 441 507 30,000 900 Level FlightAware ADS-B
Fri 04:09:47 AM 30.0710 75.2790 352° North 465 535 31,200 1,047 Climbing FlightAware ADS-B
Fri 04:10:29 AM 30.1610 75.2640 352° North 472 543 31,500 293 Climbing FlightAware ADS-B
Fri 04:11:09 AM 30.2510 75.2500 352° North 481 554 31,600 222 Climbing FlightAware ADS-B
Fri 04:11:50 AM 30.3400 75.2350 352° North 487 560 31,800 282 Climbing FlightAware ADS-B
Fri 04:12:34 AM 30.4310 75.2200 352° North 495 570 32,000 152 Climbing FlightAware ADS-B
Fri 04:13:09 AM 30.5090 75.2080 352° North 496 571 32,000  Level FlightAware ADS-B
Fri 04:14:00 AM 30.6120 75.1890 351° North 490 564 32,000  Level FlightAware ADS-B
Fri 04:14:49 AM 30.7050 75.1720 351° North 490 564 32,000  Level FlightAware ADS-B
Fri 04:15:26 AM 30.7760 75.1590 351° North 490 564 32,000  Level FlightAware ADS-B
Fri 04:16:02 AM 30.8440 75.1460 351° North 490 564 32,000  Level FlightAware ADS-B
Fri 04:16:38 AM 30.9130 75.1340 352° North 490 564 32,000  Level FlightAware ADS-B
Fri 04:17:01 AM 30.9720 74.9760 294° West 481 554 32,000  Level FlightAware ADS-B
Fri 04:17:40 AM 31.0500 74.8910 317° Northwest 480 552 32,000  Level FlightAware ADS-B
Fri 04:18:19 AM 31.1130 74.8230 317° Northwest 479 551 32,000  Level FlightAware ADS-B
Fri 04:18:55 AM 31.1710 74.7590 317° Northwest 479 551 32,000  Level FlightAware ADS-B
Fri 04:19:39 AM 31.2400 74.6790 315° West 476 548 32,000  Level FlightAware ADS-B
Fri 04:20:19 AM 31.2940 74.5970 308° West 475 547 32,000  Level FlightAware ADS-B
Fri 04:21:02 AM 31.3400 74.5030 300° West 473 544 32,000  Level FlightAware ADS-B
Fri 04:21:48 AM 31.3750 74.3930 290° West 473 544 32,000  Level FlightAware ADS-B
Fri 04:22:27 AM 31.3950 74.2960 284° West 473 544 32,000  Level FlightAware ADS-B
Fri 04:23:08 AM 31.4140 74.1940 282° West 474 545 32,000  Level FlightAware ADS-B
Fri 04:23:41 AM 31.4300 74.1140 283° West 472 543 32,000  Level FlightAware ADS-B
Fri 04:24:28 AM 31.4390 73.9940 275° West 471 542 32,000  Level FlightAware ADS-B
Fri 04:25:02 AM 31.4350 73.9060 267° West 471 542 32,000  Level FlightAware ADS-B
Fri 04:25:50 AM 31.4190 73.7840 261° West 472 543 32,000  Level FlightAware ADS-B
Fri 04:26:33 AM 31.4090 73.6750 264° West 473 544 32,000 225 Level FlightAware ADS-B
Fri 04:27:10 AM 31.4010 73.5790 264° West 473 544 32,300 714 Climbing FlightAware ADS-B
Fri 04:27:57 AM 31.3910 73.4600 264° West 469 540 33,000 805 Climbing FlightAware ADS-B
Fri 04:28:32 AM 31.3830 73.3730 264° West 469 540 33,400 390 Climbing FlightAware ADS-B
Fri 04:29:14 AM 31.3740 73.2670 264° West 475 547 33,500 488 Climbing FlightAware ADS-B
Fri 04:29:58 AM 31.3640 73.1530 264° West 473 544 34,100 789 Climbing FlightAware ADS-B
Fri 04:30:30 AM 31.3570 73.0730 264° West 470 541 34,500 640 Climbing FlightAware ADS-B
Fri 04:31:13 AM 31.3470 72.9660 264° West 469 540 34,900 571 Climbing FlightAware ADS-B
Fri 04:31:54 AM 31.3340 72.8600 262° West 469 540 35,300 578 Climbing FlightAware ADS-B
Fri 04:32:36 AM 31.3220 72.7570 262° West 468 539 35,700 488 Climbing FlightAware ADS-B
Fri 04:33:20 AM 31.3090 72.6480 262° West 468 539 36,000 214 Climbing FlightAware ADS-B
Fri 04:34:00 AM 31.2970 72.5460 262° West 469 540 36,000  Level FlightAware ADS-B
Fri 04:34:43 AM 31.2890 72.4390 265° West 467 537 36,000  Level FlightAware ADS-B
Fri 04:35:20 AM 31.2940 72.3450 274° West 467 537 36,000  Level FlightAware ADS-B
Fri 04:36:00 AM 31.3100 72.2450 281° West 467 537 36,000  Level FlightAware ADS-B
Fri 04:36:40 AM 31.3380 72.1520 289° West 468 539 36,000  Level FlightAware ADS-B
Fri 04:37:21 AM 31.3700 72.0760 296° West 468 539 36,000  Level FlightAware ADS-B
Fri 04:38:01 AM 31.4060 71.9980 298° West 468 539 36,000  Level FlightAware ADS-B
Fri 04:38:40 AM 31.4600 71.8810 298° West 468 539 36,000  Level FlightAware ADS-B
Fri 04:39:20 AM 31.5010 71.7940 299° West 469 540 36,000  Level FlightAware ADS-B
Fri 04:40:04 AM 31.5460 71.6960 298° West 470 541 36,000  Level FlightAware ADS-B
Fri 04:40:45 AM 31.5810 71.6180 298° West 470 541 36,000  Level FlightAware ADS-B
Fri 04:41:32 AM 31.6320 71.5070 298° West 470 541 36,000  Level FlightAware ADS-B
Fri 04:42:11 AM 31.6760 71.4110 298° West 469 540 36,000  Level FlightAware ADS-B
Fri 04:42:52 AM 31.7180 71.3180 298° West 468 539 36,000  Level FlightAware ADS-B
Fri 04:43:36 AM 31.7620 71.2190 298° West 467 537 36,000  Level FlightAware ADS-B
Fri 04:44:16 AM 31.8030 71.1300 298° West 468 539 36,000  Level FlightAware ADS-B
Fri 04:44:58 AM 31.8460 71.0350 298° West 469 540 36,000  Level FlightAware ADS-B
Fri 04:45:38 AM 31.8850 70.9470 298° West 470 541 36,000  Level FlightAware ADS-B
Fri 04:46:22 AM 31.9360 70.8490 302° West 470 541 36,000  Level FlightAware ADS-B
Fri 04:46:58 AM 31.9820 70.7790 308° West 469 540 36,000  Level FlightAware ADS-B
Fri 04:47:42 AM 32.0420 70.6890 308° West 468 539 36,000  Level FlightAware ADS-B
Fri 04:48:22 AM 32.0960 70.6070 308° West 467 537 36,000  Level FlightAware ADS-B
Fri 04:49:06 AM 32.1530 70.5170 307° West 464 534 36,000  Level FlightAware ADS-B
Fri 04:49:48 AM 32.1960 70.4260 299° West 464 534 36,000  Level FlightAware ADS-B
Fri 04:50:28 AM 32.2340 70.3380 297° West 465 535 36,000  Level FlightAware ADS-B
Fri 04:51:11 AM 32.2720 70.2480 297° West 465 535 36,000  Level FlightAware ADS-B
Fri 04:52:04 AM 32.3280 70.1190 297° West 465 535 36,000  Level FlightAware ADS-B
Fri 04:52:49 AM 32.3730 70.0160 297° West 464 534 36,000  Level FlightAware ADS-B
Fri 04:53:30 AM 32.4120 69.9250 297° West 464 534 36,000  Level FlightAware ADS-B
Fri 04:54:14 AM 32.4590 69.8250 299° West 464 534 36,000  Level FlightAware ADS-B
Fri 04:54:54 AM 32.5000 69.7380 299° West 463 533 36,000  Level FlightAware ADS-B
Fri 04:55:29 AM 32.5350 69.6730 303° West 463 533 36,000  Level FlightAware ADS-B
Fri 04:56:06 AM 32.5730 69.6200 310° West 463 533 36,000  Level FlightAware ADS-B
Fri 04:57:07 AM 32.6890 69.4880 316° Northwest 465 535 36,000  Level FlightAware ADS-B
Fri 04:57:46 AM 32.7420 69.4280 316° Northwest 466 536 36,000  Level FlightAware ADS-B
Fri 04:58:34 AM 32.8050 69.3550 316° Northwest 466 536 36,000  Level FlightAware ADS-B
Fri 04:59:10 AM 32.8520 69.3010 316° Northwest 466 536 36,000  Level FlightAware ADS-B
Fri 04:59:58 AM 32.9160 69.2280 316° Northwest 466 536 36,000  Level FlightAware ADS-B
Fri 05:00:33 AM 32.9620 69.1750 316° Northwest 466 536 36,000  Level FlightAware ADS-B
Fri 05:01:09 AM 33.0090 69.1200 316° Northwest 466 536 36,000  Level FlightAware ADS-B
Fri 05:01:57 AM 33.0730 69.0470 316° Northwest 466 536 36,000  Level FlightAware ADS-B
Fri 05:02:33 AM 33.1200 68.9930 316° Northwest 466 536 36,000  Level FlightAware ADS-B
Fri 05:03:09 AM 33.1670 68.9380 316° Northwest 466 536 36,000  Level FlightAware ADS-B
Fri 05:03:57 AM 33.2310 68.8650 316° Northwest 466 536 36,000  Level FlightAware ADS-B
Fri 05:04:33 AM 33.2780 68.8100 316° Northwest 466 536 36,000  Level FlightAware ADS-B
Fri 05:05:09 AM 33.3260 68.7550 316° Northwest 466 536 36,000  Level FlightAware ADS-B
Fri 05:05:46 AM 33.3740 68.6990 316° Northwest 466 536 36,000  Level FlightAware ADS-B
Fri 05:06:34 AM 33.4380 68.6260 316° Northwest 466 536 36,000  Level FlightAware ADS-B
Fri 05:07:10 AM 33.4850 68.5710 316° Northwest 466 536 36,000  Level FlightAware ADS-B
Fri 05:09:00 AM 33.6207 68.3918 312° West  Level Estimated
Fri 05:10:00 AM 33.6946 68.2939 312° West  Level Estimated
Fri 05:11:00 AM 33.7685 68.1957 312° West  Level Estimated
Fri 05:12:00 AM 33.8423 68.0974 312° West  Level Estimated
Fri 05:13:00 AM 33.9159 67.9989 312° West  Level Estimated
Fri 05:14:00 AM 33.9896 67.9003 312° West  Level Estimated
Fri 05:15:00 AM 34.0631 67.8015 312° West  Level Estimated
Fri 05:16:00 AM 34.1365 67.7025 312° West  Level Estimated
Fri 05:17:00 AM 34.2099 67.6033 312° West  Level Estimated
Fri 05:18:00 AM 34.2832 67.5040 312° West  Level Estimated
Fri 05:19:00 AM 34.3564 67.4045 312° West  Level Estimated
Fri 05:20:00 AM 34.4295 67.3048 312° West  Level Estimated
Fri 05:21:00 AM 34.5026 67.2050 312° West  Level Estimated
Fri 05:22:00 AM 34.5756 67.1049 312° West  Level Estimated
Fri 05:23:00 AM 34.6484 67.0047 311° West  Level Estimated
Fri 05:24:00 AM 34.7212 66.9044 311° West  Level Estimated
Fri 05:25:00 AM 34.7940 66.8038 311° West  Level Estimated
Fri 05:26:00 AM 34.8666 66.7031 311° West  Level Estimated
Fri 05:27:00 AM 34.9392 66.6022 311° West  Level Estimated
Fri 05:28:00 AM 35.0116 66.5011 311° West  Level Estimated
Fri 05:29:00 AM 35.0840 66.3998 311° West  Level Estimated
Fri 05:30:00 AM 35.1563 66.2983 311° West  Level Estimated
Fri 05:31:00 AM 35.2285 66.1967 311° West  Level Estimated
Fri 05:32:00 AM 35.3007 66.0949 311° West  Level Estimated
Fri 05:33:00 AM 35.3727 65.9929 311° West  Level Estimated
Fri 05:34:00 AM 35.4447 65.8907 311° West  Level Estimated
Fri 05:35:00 AM 35.5166 65.7884 311° West  Level Estimated
Fri 05:36:00 AM 35.5883 65.6858 311° West  Level Estimated
Fri 05:37:00 AM 35.6600 65.5831 311° West  Level Estimated
Fri 05:38:00 AM 35.7317 65.4802 311° West  Level Estimated
Fri 05:39:00 AM 35.8032 65.3771 311° West  Level Estimated
Fri 05:40:00 AM 35.8746 65.2738 311° West  Level Estimated
Fri 05:41:00 AM 35.9460 65.1703 310° West  Level Estimated
Fri 05:42:00 AM 36.0173 65.0667 310° West  Level Estimated
Fri 05:43:00 AM 36.0884 64.9629 310° West  Level Estimated
Fri 05:44:00 AM 36.1595 64.8588 310° West  Level Estimated
Fri 05:45:00 AM 36.2305 64.7546 310° West  Level Estimated
Fri 05:46:00 AM 36.3014 64.6502 310° West  Level Estimated
Fri 05:47:00 AM 36.3722 64.5456 310° West  Level Estimated
Fri 05:48:00 AM 36.4429 64.4408 310° West  Level Estimated
Fri 05:49:00 AM 36.5135 64.3358 310° West  Level Estimated
Fri 05:50:00 AM 36.5841 64.2307 310° West  Level Estimated
Fri 05:51:00 AM 36.6545 64.1253 310° West  Level Estimated
Fri 05:52:00 AM 36.7249 64.0197 310° West  Level Estimated
Fri 05:53:00 AM 36.7951 63.9140 310° West  Level Estimated
Fri 05:54:00 AM 36.8653 63.8080 310° West  Level Estimated
Fri 05:55:00 AM 36.9354 63.7019 310° West  Level Estimated
Fri 05:56:00 AM 37.0053 63.5956 310° West  Level Estimated
Fri 05:57:00 AM 37.0752 63.4891 309° West  Level Estimated
Fri 05:58:00 AM 37.1450 63.3823 309° West  Level Estimated
Fri 05:59:00 AM 37.2147 63.2754 309° West  Level Estimated
Fri 06:00:00 AM 37.2843 63.1683 309° West  Level Estimated
Fri 06:01:00 AM 37.3538 63.0610 309° West  Level Estimated
Fri 06:02:00 AM 37.4232 62.9534 309° West  Level Estimated
Fri 06:03:00 AM 37.4925 62.8457 309° West  Level Estimated
Fri 06:04:00 AM 37.5617 62.7378 309° West  Level Estimated
Fri 06:05:00 AM 37.6308 62.6297 309° West  Level Estimated
Fri 06:06:00 AM 37.6998 62.5214 309° West  Level Estimated
Fri 06:07:00 AM 37.7687 62.4128 309° West  Level Estimated
Fri 06:08:00 AM 37.8375 62.3041 309° West  Level Estimated
Fri 06:09:00 AM 37.9062 62.1952 309° West  Level Estimated
Fri 06:10:00 AM 37.9748 62.0861 309° West  Level Estimated
Fri 06:11:00 AM 38.0433 61.9767 309° West  Level Estimated
Fri 06:12:00 AM 38.1117 61.8672 308° West  Level Estimated
Fri 06:13:00 AM 38.1800 61.7575 308° West  Level Estimated
Fri 06:14:00 AM 38.2482 61.6475 308° West  Level Estimated
Fri 06:15:00 AM 38.3163 61.5374 308° West  Level Estimated
Fri 06:16:00 AM 38.3843 61.4270 308° West  Level Estimated
Fri 06:17:00 AM 38.4522 61.3164 308° West  Level Estimated
Fri 06:18:00 AM 38.5200 61.2057 308° West  Level Estimated
Fri 06:19:00 AM 38.5877 61.0947 308° West  Level Estimated
Fri 06:20:00 AM 38.6553 60.9835 308° West  Level Estimated
Fri 06:21:00 AM 38.7227 60.8721 308° West  Level Estimated
Fri 06:22:00 AM 38.7901 60.7605 308° West  Level Estimated
Fri 06:23:00 AM 38.8573 60.6486 308° West  Level Estimated
Fri 06:24:00 AM 38.9245 60.5366 308° West  Level Estimated
Fri 06:25:00 AM 38.9915 60.4243 308° West  Level Estimated
Fri 06:26:00 AM 39.0585 60.3119 307° West  Level Estimated
Fri 06:27:00 AM 39.1253 60.1992 307° West  Level Estimated
Fri 06:28:00 AM 39.1920 60.0863 307° West  Level Estimated
Fri 06:29:00 AM 39.2586 59.9732 307° West  Level Estimated
Fri 06:30:00 AM 39.3251 59.8599 307° West  Level Estimated
Fri 06:31:00 AM 39.3915 59.7464 307° West  Level Estimated
Fri 06:32:00 AM 39.4578 59.6326 307° West  Level Estimated
Fri 06:33:00 AM 39.5240 59.5186 307° West  Level Estimated
Fri 06:34:00 AM 39.5900 59.4045 307° West  Level Estimated
Fri 06:35:00 AM 39.6560 59.2901 307° West  Level Estimated
Fri 06:36:00 AM 39.7218 59.1754 307° West  Level Estimated
Fri 06:37:00 AM 39.7875 59.0606 307° West  Level Estimated
Fri 06:38:00 AM 39.8531 58.9455 307° West  Level Estimated
Fri 06:39:00 AM 39.9186 58.8303 307° West  Level Estimated
Fri 06:40:00 AM 39.9840 58.7148 306° West  Level Estimated
Fri 06:41:00 AM 40.0493 58.5990 306° West  Level Estimated
Fri 06:42:00 AM 40.1144 58.4831 306° West  Level Estimated
Fri 06:43:00 AM 40.1795 58.3669 306° West  Level Estimated
Fri 06:44:00 AM 40.2444 58.2505 306° West  Level Estimated
Fri 06:45:00 AM 40.3092 58.1339 306° West  Level Estimated
Fri 06:46:00 AM 40.3739 58.0171 306° West  Level Estimated
Fri 06:47:00 AM 40.4384 57.9001 306° West  Level Estimated
Fri 06:48:00 AM 40.5029 57.7828 306° West  Level Estimated
Fri 06:49:00 AM 40.5672 57.6653 306° West  Level Estimated
Fri 06:50:00 AM 40.6314 57.5475 306° West  Level Estimated
Fri 06:51:00 AM 40.6955 57.4296 306° West  Level Estimated
Fri 06:52:00 AM 40.7595 57.3114 306° West  Level Estimated
Fri 06:53:00 AM 40.8233 57.1930 305° West  Level Estimated
Fri 06:54:00 AM 40.8871 57.0743 305° West  Level Estimated
Fri 06:55:00 AM 40.9506 56.9555 305° West  Level Estimated
Fri 06:56:00 AM 41.0141 56.8364 305° West  Level Estimated
Fri 06:57:00 AM 41.0775 56.7170 305° West  Level Estimated
Fri 06:58:00 AM 41.1407 56.5975 305° West  Level Estimated
Fri 06:59:00 AM 41.2038 56.4777 305° West  Level Estimated
Fri 07:00:00 AM 41.2668 56.3577 305° West  Level Estimated
Fri 07:01:00 AM 41.3297 56.2374 305° West  Level Estimated
Fri 07:02:00 AM 41.3924 56.1169 305° West  Level Estimated
Fri 07:03:00 AM 41.4550 55.9962 305° West  Level Estimated
Fri 07:04:00 AM 41.5175 55.8753 305° West  Level Estimated
Fri 07:05:00 AM 41.5799 55.7541 305° West  Level Estimated
Fri 07:06:00 AM 41.6421 55.6327 304° West  Level Estimated
Fri 07:07:00 AM 41.7042 55.5110 304° West  Level Estimated
Fri 07:08:00 AM 41.7662 55.3891 304° West  Level Estimated
Fri 07:09:00 AM 41.8280 55.2670 304° West  Level Estimated
Fri 07:10:00 AM 41.8897 55.1446 304° West  Level Estimated
Fri 07:11:00 AM 41.9513 55.0220 304° West  Level Estimated
Fri 07:12:00 AM 42.0128 54.8992 304° West  Level Estimated
Fri 07:13:00 AM 42.0741 54.7761 304° West  Level Estimated
Fri 07:14:00 AM 42.1353 54.6528 304° West  Level Estimated
Fri 07:15:00 AM 42.1963 54.5293 304° West  Level Estimated
Fri 07:16:00 AM 42.2573 54.4055 304° West  Level Estimated
Fri 07:17:00 AM 42.3181 54.2815 304° West  Level Estimated
Fri 07:18:00 AM 42.3787 54.1572 303° West  Level Estimated
Fri 07:19:00 AM 42.4392 54.0327 303° West  Level Estimated
Fri 07:20:00 AM 42.4996 53.9080 303° West  Level Estimated
Fri 07:21:00 AM 42.5599 53.7830 303° West  Level Estimated
Fri 07:22:00 AM 42.6200 53.6578 303° West  Level Estimated
Fri 07:23:00 AM 42.6800 53.5323 303° West  Level Estimated
Fri 07:24:00 AM 42.7398 53.4066 303° West  Level Estimated
Fri 07:25:00 AM 42.7995 53.2806 303° West  Level Estimated
Fri 07:26:00 AM 42.8591 53.1544 303° West  Level Estimated
Fri 07:27:00 AM 42.9185 53.0280 303° West  Level Estimated
Fri 07:28:00 AM 42.9778 52.9013 303° West  Level Estimated
Fri 07:29:00 AM 43.0370 52.7744 303° West  Level Estimated
Fri 07:30:00 AM 43.0960 52.6472 302° West  Level Estimated
Fri 07:31:00 AM 43.1548 52.5198 302° West  Level Estimated
Fri 07:32:00 AM 43.2136 52.3921 302° West  Level Estimated
Fri 07:33:00 AM 43.2721 52.2642 302° West  Level Estimated
Fri 07:34:00 AM 43.3306 52.1361 302° West  Level Estimated
Fri 07:35:00 AM 43.3889 52.0077 302° West  Level Estimated
Fri 07:36:00 AM 43.4470 51.8790 302° West  Level Estimated
Fri 07:37:00 AM 43.5051 51.7501 302° West  Level Estimated
Fri 07:38:00 AM 43.5629 51.6210 302° West  Level Estimated
Fri 07:39:00 AM 43.6206 51.4916 302° West  Level Estimated
Fri 07:39:54 AM 44.7550 49.4710 302° West 421 484 36,000  Level FlightAware ADS-B
Fri 07:40:00 AM 43.6782 51.3620 302° West  Level Estimated
Fri 07:40:32 AM 44.8120 49.3580 305° West 420 483 36,000  Level FlightAware ADS-B
Fri 07:41:14 AM 44.8540 49.2760 306° West 421 484 36,000  Level FlightAware ADS-B
Fri 07:41:52 AM 44.9020 49.1800 305° West 420 483 36,000  Level FlightAware ADS-B
Fri 07:42:32 AM 44.9470 49.0900 305° West 420 483 36,000  Level FlightAware ADS-B
Fri 07:43:17 AM 44.9970 48.9900 305° West 421 484 36,000  Level FlightAware ADS-B
Fri 07:43:57 AM 45.0400 48.9030 305° West 421 484 36,000  Level FlightAware ADS-B
Fri 07:44:37 AM 45.0840 48.8130 305° West 421 484 36,000  Level FlightAware ADS-B
Fri 07:45:26 AM 45.1310 48.7190 305° West 421 484 36,000  Level FlightAware ADS-B
Fri 07:46:02 AM 45.1650 48.6500 305° West 421 484 36,000  Level FlightAware ADS-B
Fri 07:46:47 AM 45.2290 48.5210 305° West 422 486 36,000  Level FlightAware ADS-B
Fri 07:47:28 AM 45.2660 48.4450 305° West 425 489 36,000  Level FlightAware ADS-B
Fri 07:48:16 AM 45.3130 48.3500 305° West 425 489 36,000  Level FlightAware ADS-B
Fri 07:48:53 AM 45.3580 48.2560 304° West 424 488 36,000  Level FlightAware ADS-B
Fri 07:49:33 AM 45.4110 48.1470 305° West 422 486 36,000  Level FlightAware ADS-B
Fri 07:50:15 AM 45.4620 48.0410 304° West 422 486 36,000  Level FlightAware ADS-B
Fri 07:50:55 AM 45.5060 47.9500 305° West 422 486 36,000  Level FlightAware ADS-B
Fri 07:51:36 AM 45.5500 47.8570 304° West 420 483 36,000  Level FlightAware ADS-B
Fri 07:52:27 AM 45.6050 47.7440 305° West 420 483 36,000  Level FlightAware ADS-B
Fri 07:53:23 AM 45.6670 47.6120 304° West 422 486 36,000  Level FlightAware ADS-B
Fri 07:54:09 AM 45.7130 47.5160 304° West 423 487 36,000  Level FlightAware ADS-B
Fri 07:54:41 AM 45.7490 47.4400 304° West 424 488 36,000  Level FlightAware ADS-B
Fri 07:55:29 AM 45.8020 47.3280 304° West 424 488 36,000  Level FlightAware ADS-B
Fri 07:56:04 AM 45.8320 47.2640 304° West 424 488 36,000  Level FlightAware ADS-B
Fri 07:56:49 AM 45.8910 47.1380 304° West 423 487 36,000  Level FlightAware ADS-B
Fri 07:57:31 AM 45.9320 47.0430 302° West 418 481 36,000  Level FlightAware ADS-B
Fri 07:58:13 AM 45.9690 46.9300 295° West 416 479 36,000  Level FlightAware ADS-B
Fri 07:58:53 AM 45.9980 46.8400 295° West 417 480 36,000  Level FlightAware ADS-B
Fri 07:59:34 AM 46.0330 46.7320 295° West 418 481 36,000  Level FlightAware ADS-B
Fri 08:00:19 AM 46.0620 46.6430 295° West 419 482 36,000  Level FlightAware ADS-B
Fri 08:00:58 AM 46.1010 46.5170 294° West 418 481 36,000  Level FlightAware ADS-B
Fri 08:01:43 AM 46.1380 46.4010 295° West 416 479 36,000  Level FlightAware ADS-B
Fri 08:02:33 AM 46.1720 46.2940 295° West 416 479 36,000  Level FlightAware ADS-B
Fri 08:03:19 AM 46.2020 46.1940 293° West 416 479 36,000  Level FlightAware ADS-B
Fri 08:04:04 AM 46.2400 46.0770 295° West 414 476 36,000  Level FlightAware ADS-B
Fri 08:04:46 AM 46.2830 45.9380 294° West 415 478 36,000  Level FlightAware ADS-B
Fri 08:05:26 AM 46.3130 45.8390 294° West 415 478 36,000  Level FlightAware ADS-B
Fri 08:06:11 AM 46.3480 45.7270 294° West 417 480 36,000  Level FlightAware ADS-B
Fri 08:06:42 AM 46.3720 45.6490 294° West 417 480 36,000  Level FlightAware ADS-B
Fri 08:07:26 AM 46.4070 45.5340 294° West 419 482 36,000  Level FlightAware ADS-B
Fri 08:08:06 AM 46.4380 45.4330 294° West 419 482 36,000  Level FlightAware ADS-B
Fri 08:08:55 AM 46.4610 45.3510 292° West 418 481 36,000  Level FlightAware ADS-B
Fri 08:09:33 AM 46.4850 45.2680 293° West 418 481 36,000  Level FlightAware ADS-B
Fri 08:10:21 AM 46.5160 45.1620 293° West 418 481 36,000  Level FlightAware ADS-B
Fri 08:10:58 AM 46.5400 45.0810 293° West 418 481 36,000  Level FlightAware ADS-B
Fri 08:11:33 AM 46.4610 45.3510 113° Southeast 36,000  Level FlightAware ADS-B
Fri 08:12:08 AM 46.6140 44.8170 293° West 419 482 36,000  Level FlightAware ADS-B
Fri 08:12:58 AM 46.6450 44.7060 292° West 419 482 36,000  Level FlightAware ADS-B
Fri 08:13:34 AM 46.6670 44.6260 292° West 419 482 36,000  Level FlightAware ADS-B
Fri 08:14:14 AM 46.6920 44.5370 292° West 419 482 36,000  Level FlightAware ADS-B
Fri 08:15:00 AM 46.7330 44.3970 293° West 425 489 36,000  Level FlightAware ADS-B
Fri 08:15:43 AM 46.7750 44.2440 292° West 427 491 36,000  Level FlightAware ADS-B
Fri 08:16:29 AM 46.8070 44.1280 292° West 427 491 36,000  Level FlightAware ADS-B
Fri 08:17:03 AM 46.8360 44.0260 293° West 427 491 36,000  Level FlightAware ADS-B
Fri 08:17:42 AM 46.8590 43.9360 291° West 427 491 36,000  Level FlightAware ADS-B
Fri 08:18:38 AM 46.8510 43.9680 110° East 427 491 36,000  Level FlightAware ADS-B
Fri 08:19:24 AM 46.8780 43.8630 291° West 427 491 36,000  Level FlightAware ADS-B
Fri 08:20:13 AM 46.9710 43.5290 292° West 434 499 36,000  Level FlightAware ADS-B
Fri 08:20:55 AM 46.9960 43.4310 291° West 434 499 36,000  Level FlightAware ADS-B
Fri 08:21:41 AM 46.9890 43.4620 108° East 433 498 36,000  Level FlightAware ADS-B
Fri 08:22:18 AM 47.0650 43.1770 291° West 433 498 36,000  Level FlightAware ADS-B
Fri 08:23:03 AM 47.0960 43.0620 292° West 434 499 36,000  Level FlightAware ADS-B
Fri 08:23:43 AM 47.1250 42.9490 291° West 435 501 36,000  Level FlightAware ADS-B
Fri 08:24:40 AM 47.1650 42.7980 291° West 436 502 36,000  Level FlightAware ADS-B
Fri 08:25:24 AM 47.1930 42.6910 291° West 437 503 36,000  Level FlightAware ADS-B
Fri 08:26:08 AM 47.2310 42.5440 291° West 438 504 36,000  Level FlightAware ADS-B
Fri 08:26:48 AM 47.2610 42.4260 291° West 437 503 36,000  Level FlightAware ADS-B
Fri 08:27:28 AM 47.2870 42.3260 291° West 438 504 36,000  Level FlightAware ADS-B
Fri 08:28:13 AM 47.3210 42.1900 290° West 440 506 36,000  Level FlightAware ADS-B
Fri 08:28:49 AM 47.3230 42.1850 301° West 441 507 36,000  Level FlightAware ADS-B
Fri 08:29:32 AM 47.3510 42.0700 290° West 441 507 36,000  Level FlightAware ADS-B
Fri 08:29:58 AM 47.3820 41.9500 291° West 442 509 36,000  Level FlightAware ADS-B
Fri 08:30:43 AM 47.4070 41.8500 290° West 444 511 36,000  Level FlightAware ADS-B
Fri 08:31:28 AM 47.4590 41.6430 290° West 443 510 36,000  Level FlightAware ADS-B
Fri 08:32:08 AM 47.4870 41.5310 290° West 443 510 36,000  Level FlightAware ADS-B
Fri 08:33:27 AM 47.5210 41.3920 290° West 442 509 36,000  Level FlightAware ADS-B
Fri 08:34:13 AM 47.5730 41.1750 290° West 440 506 36,000  Level FlightAware ADS-B
Fri 08:34:49 AM 47.5970 41.0830 291° West 440 506 36,000  Level FlightAware ADS-B
Fri 08:35:39 AM 47.6300 40.9640 292° West 440 506 36,000  Level FlightAware ADS-B
Fri 08:36:15 AM 47.6530 40.8780 292° West 440 506 36,000  Level FlightAware ADS-B
Fri 08:37:11 AM 47.7140 40.6900 296° West 442 509 36,000  Level FlightAware ADS-B
Fri 08:37:53 AM 47.7520 40.5620 294° West 443 510 36,000  Level FlightAware ADS-B
Fri 08:38:38 AM 47.7880 40.4360 293° West 444 511 36,000  Level FlightAware ADS-B
Fri 08:39:20 AM 47.8180 40.3320 293° West 445 512 36,000  Level FlightAware ADS-B
Fri 08:40:04 AM 47.8550 40.2070 294° West 446 513 36,000  Level FlightAware ADS-B
Fri 08:40:57 AM 47.8900 40.0800 292° West 445 512 36,000  Level FlightAware ADS-B
Fri 08:41:49 AM 47.9290 39.8960 288° West 443 510 36,000  Level FlightAware ADS-B
Fri 08:42:30 AM 47.9560 39.7810 289° West 442 509 36,000  Level FlightAware ADS-B
Fri 08:43:11 AM 47.9890 39.6550 291° West 441 507 36,000  Level FlightAware ADS-B
Fri 08:43:46 AM 48.0130 39.5580 290° West 440 506 36,000  Level FlightAware ADS-B
Fri 08:44:41 AM 48.0440 39.4310 290° West 440 506 36,000  Level FlightAware ADS-B
Fri 08:45:50 AM 48.0870 39.2580 290° West 442 509 36,000  Level FlightAware ADS-B
Fri 08:46:30 AM 48.1130 39.1550 291° West 443 510 36,000  Level FlightAware ADS-B
Fri 08:47:10 AM 48.1450 39.0270 291° West 442 509 36,000  Level FlightAware ADS-B
Fri 08:47:56 AM 48.1760 38.8970 290° West 440 506 36,000  Level FlightAware ADS-B
Fri 08:48:37 AM 48.1990 38.8010 290° West 440 506 36,000  Level FlightAware ADS-B
Fri 08:49:29 AM 48.2520 38.5850 290° West 440 506 36,000  Level FlightAware ADS-B
Fri 08:50:27 AM 48.2740 38.4900 289° West 441 507 36,000  Level FlightAware ADS-B
Fri 08:51:22 AM 48.3230 38.2860 290° West 444 511 36,000  Level FlightAware ADS-B
Fri 08:52:53 AM 48.3770 38.0560 290° West 445 512 36,000  Level FlightAware ADS-B
Fri 08:53:27 AM 48.4120 37.9090 290° West 448 516 36,000  Level FlightAware ADS-B
Fri 08:54:18 AM 48.4460 37.7600 289° West 447 514 36,000  Level FlightAware ADS-B
Fri 08:54:54 AM 48.4720 37.6480 289° West 448 516 36,000  Level FlightAware ADS-B
Fri 08:55:32 AM 48.4940 37.5500 289° West 449 517 36,000  Level FlightAware ADS-B
Fri 08:56:28 AM 48.5320 37.3860 289° West 449 517 36,000  Level FlightAware ADS-B
Fri 08:57:20 AM 48.5570 37.2710 288° West 449 517 36,000  Level FlightAware ADS-B
Fri 08:57:57 AM 48.5950 37.1070 289° West 447 514 36,000  Level FlightAware ADS-B
Fri 08:58:38 AM 48.6220 36.9860 289° West 447 514 36,000  Level FlightAware ADS-B
Fri 08:59:18 AM 48.6470 36.8700 288° West 446 513 36,000  Level FlightAware ADS-B
Fri 09:00:01 AM 48.6800 36.7230 289° West 445 512 36,000  Level FlightAware ADS-B
Fri 09:00:41 AM 48.7050 36.6090 288° West 446 513 36,000  Level FlightAware ADS-B
Fri 09:01:21 AM 48.7310 36.4890 288° West 444 511 36,000  Level FlightAware ADS-B
Fri 09:02:01 AM 48.7560 36.3730 288° West 443 510 36,000  Level FlightAware ADS-B
Fri 09:02:45 AM 48.7750 36.2870 289° West 443 510 36,000  Level FlightAware ADS-B
Fri 09:03:24 AM 48.8010 36.1650 288° West 445 512 36,000  Level FlightAware ADS-B
Fri 09:04:12 AM 48.8330 36.0180 288° West 446 513 36,000  Level FlightAware ADS-B
Fri 09:04:46 AM 48.8600 35.8880 288° West 446 513 36,000  Level FlightAware ADS-B
Fri 09:05:21 AM 48.8820 35.7840 288° West 445 512 36,000  Level FlightAware ADS-B
Fri 09:06:06 AM 48.9100 35.6500 288° West 446 513 36,000  Level FlightAware ADS-B
Fri 09:07:13 AM 48.9440 35.4850 287° West 446 513 36,000  Level FlightAware ADS-B
Fri 09:07:56 AM 48.9760 35.3330 288° West 447 514 36,000  Level FlightAware ADS-B
Fri 09:08:36 AM 49.0020 35.2050 287° West 446 513 36,000  Level FlightAware ADS-B
Fri 09:09:11 AM 49.0230 35.1000 287° West 445 512 36,000  Level FlightAware ADS-B
Fri 09:09:56 AM 49.0500 34.9680 287° West 445 512 36,000  Level FlightAware ADS-B
Fri 09:10:38 AM 49.0710 34.8620 287° West 445 512 36,000  Level FlightAware ADS-B
Fri 09:11:32 AM 49.0980 34.7300 287° West 438 504 36,000  Level FlightAware ADS-B
Fri 09:12:14 AM 49.1320 34.5570 287° West 434 499 36,000  Level FlightAware ADS-B
Fri 09:12:54 AM 49.1540 34.4470 287° West 436 502 36,000  Level FlightAware ADS-B
Fri 09:13:39 AM 49.1810 34.3090 287° West 438 504 36,000  Level FlightAware ADS-B
Fri 09:14:19 AM 49.2040 34.1920 287° West 437 503 36,000  Level FlightAware ADS-B
Fri 09:14:57 AM 49.2190 34.1150 287° West 435 501 36,000  Level FlightAware ADS-B
Fri 09:15:37 AM 49.2410 33.9970 286° West 434 499 36,000  Level FlightAware ADS-B
Fri 09:16:24 AM 49.2750 33.8200 286° West 432 497 36,000  Level FlightAware ADS-B
Fri 09:17:14 AM 49.3010 33.6810 286° West 433 498 36,000  Level FlightAware ADS-B
Fri 09:17:57 AM 49.3290 33.5470 288° West 434 499 36,000  Level FlightAware ADS-B
Fri 09:18:47 AM 49.3590 33.4130 289° West 435 501 36,000  Level FlightAware ADS-B
Fri 09:19:41 AM 49.3960 33.2500 289° West 435 501 36,000  Level FlightAware ADS-B
Fri 09:20:16 AM 49.4190 33.1440 288° West 434 499 36,000  Level FlightAware ADS-B
Fri 09:21:07 AM 49.4420 33.0400 289° West 433 498 36,000  Level FlightAware ADS-B
Fri 09:22:07 AM 49.4820 32.8600 289° West 434 499 36,000  Level FlightAware ADS-B
Fri 09:22:46 AM 49.5130 32.7180 289° West 435 501 36,000  Level FlightAware ADS-B
Fri 09:23:26 AM 49.5410 32.5870 288° West 435 501 36,000  Level FlightAware ADS-B
Fri 09:24:11 AM 49.5690 32.4570 288° West 438 504 36,000  Level FlightAware ADS-B
Fri 09:25:06 AM 49.5970 32.3260 288° West 438 504 36,000  Level FlightAware ADS-B
Fri 09:25:43 AM 49.6250 32.1950 288° West 438 504 36,000  Level FlightAware ADS-B
Fri 09:26:26 AM 49.6530 32.0640 288° West 438 504 36,000  Level FlightAware ADS-B
Fri 09:27:11 AM 49.6810 31.9330 288° West 438 504 36,000  Level FlightAware ADS-B
Fri 09:27:51 AM 49.7090 31.8010 288° West 443 510 36,000  Level FlightAware ADS-B
Fri 09:28:33 AM 49.7340 31.6700 286° West 442 509 36,000  Level FlightAware ADS-B
Fri 09:29:13 AM 49.7590 31.5480 288° West 442 509 36,000 366 Level FlightAware ADS-B
Fri 09:29:55 AM 49.7840 31.4270 288° West 445 512 36,500 918 Climbing FlightAware ADS-B
Fri 09:30:51 AM 49.8180 31.2560 287° West 444 511 37,500 900 Climbing FlightAware ADS-B
Fri 09:31:35 AM 49.8450 31.1210 287° West 441 507 38,000 341 Climbing FlightAware ADS-B
Fri 09:32:19 AM 49.8720 30.9870 287° West 440 506 38,000  Level FlightAware ADS-B
Fri 09:33:00 AM 49.8960 30.8670 287° West 436 502 38,000  Level FlightAware ADS-B
Fri 09:33:38 AM 49.9110 30.7890 287° West 436 502 38,000  Level FlightAware ADS-B
Fri 09:34:31 AM 49.9410 30.6340 287° West 436 502 38,000  Level FlightAware ADS-B
Fri 09:35:14 AM 49.9740 30.4660 287° West 440 506 38,000  Level FlightAware ADS-B
Fri 09:35:52 AM 49.9960 30.3490 286° West 442 509 38,000  Level FlightAware ADS-B
Fri 09:36:32 AM 50.0190 30.2280 287° West 442 509 38,000  Level FlightAware ADS-B
Fri 09:37:16 AM 50.0440 30.0970 287° West 441 507 38,000  Level FlightAware ADS-B
Fri 09:37:57 AM 50.0600 30.0090 286° West 442 509 38,000  Level FlightAware ADS-B
Fri 09:38:38 AM 50.0900 29.8450 286° West 438 504 38,000  Level FlightAware ADS-B
Fri 09:39:22 AM 50.1100 29.7110 283° West 438 504 38,000  Level FlightAware ADS-B
Fri 09:40:02 AM 50.1280 29.5890 283° West 437 503 38,000  Level FlightAware ADS-B
Fri 09:40:43 AM 50.1470 29.4640 283° West 439 505 38,000  Level FlightAware ADS-B
Fri 09:41:20 AM 50.1650 29.3470 284° West 440 506 38,000  Level FlightAware ADS-B
Fri 09:41:56 AM 50.1820 29.2360 283° West 437 503 38,000  Level FlightAware ADS-B
Fri 09:42:38 AM 50.1950 29.1460 283° West 436 502 38,000  Level FlightAware ADS-B
Fri 09:43:33 AM 50.2240 28.9510 283° West 438 504 38,000  Level FlightAware ADS-B
Fri 09:44:19 AM 50.2460 28.8000 283° West 436 502 38,000  Level FlightAware ADS-B
Fri 09:44:58 AM 50.2630 28.6820 283° West 436 502 38,000  Level FlightAware ADS-B
Fri 09:45:44 AM 50.2840 28.5380 283° West 438 504 38,000  Level FlightAware ADS-B
Fri 09:46:22 AM 50.3010 28.4200 283° West 439 505 38,000  Level FlightAware ADS-B
Fri 09:46:58 AM 50.3160 28.3110 282° West 440 506 38,000  Level FlightAware ADS-B
Fri 09:47:44 AM 50.3360 28.1670 282° West 441 507 38,000  Level FlightAware ADS-B
Fri 09:48:20 AM 50.3480 28.0860 283° West 442 509 38,000  Level FlightAware ADS-B
Fri 09:48:59 AM 50.3640 27.9710 282° West 442 509 38,000  Level FlightAware ADS-B
Fri 09:49:40 AM 50.3860 27.8070 282° West 441 507 38,000  Level FlightAware ADS-B
Fri 09:50:20 AM 50.4040 27.6780 282° West 441 507 38,000  Level FlightAware ADS-B
Fri 09:51:04 AM 50.4210 27.5480 282° West 440 506 38,000  Level FlightAware ADS-B
Fri 09:51:49 AM 50.4400 27.4030 282° West 441 507 38,000  Level FlightAware ADS-B
Fri 09:52:27 AM 50.4560 27.2850 282° West 440 506 38,000  Level FlightAware ADS-B
Fri 09:53:29 AM 50.4760 27.1320 282° West 439 505 38,000  Level FlightAware ADS-B
Fri 09:54:15 AM 50.5000 26.9500 282° West 437 503 38,000  Level FlightAware ADS-B
Fri 09:54:55 AM 50.5160 26.8260 282° West 436 502 38,000  Level FlightAware ADS-B
Fri 09:55:39 AM 50.5340 26.6880 282° West 434 499 38,000  Level FlightAware ADS-B
Fri 09:56:16 AM 50.5480 26.5790 281° West 433 498 38,000  Level FlightAware ADS-B
Fri 09:56:58 AM 50.5590 26.4860 281° West 434 499 38,000  Level FlightAware ADS-B
Fri 09:57:45 AM 50.5820 26.3010 281° West 435 501 38,000  Level FlightAware ADS-B
Fri 09:58:25 AM 50.5980 26.1730 281° West 436 502 38,000  Level FlightAware ADS-B
Fri 09:59:01 AM 50.6110 26.0700 281° West 435 501 38,000  Level FlightAware ADS-B
Fri 09:59:49 AM 50.6300 25.9150 281° West 434 499 38,000  Level FlightAware ADS-B
Fri 10:00:33 AM 50.6430 25.8010 280° West 433 498 38,000  Level FlightAware ADS-B
Fri 10:01:08 AM 50.6530 25.7160 281° West 434 499 38,000  Level FlightAware ADS-B
Fri 10:01:55 AM 50.6760 25.5260 281° West 435 501 38,000  Level FlightAware ADS-B
Fri 10:02:31 AM 50.6880 25.4150 280° West 434 499 38,000  Level FlightAware ADS-B
Fri 10:03:15 AM 50.7040 25.2820 281° West 434 499 38,000  Level FlightAware ADS-B
Fri 10:03:55 AM 50.7190 25.1520 280° West 433 498 38,000  Level FlightAware ADS-B
Fri 10:04:35 AM 50.7300 25.0560 280° West 433 498 38,000  Level FlightAware ADS-B
Fri 10:05:11 AM 50.7400 24.9670 280° West 434 499 38,000  Level FlightAware ADS-B
Fri 10:06:04 AM 50.7620 24.7610 280° West 435 501 38,000  Level FlightAware ADS-B
Fri 10:06:42 AM 50.7760 24.6370 280° West 434 499 38,000  Level FlightAware ADS-B
Fri 10:07:23 AM 50.7900 24.5090 280° West 434 499 38,000  Level FlightAware ADS-B
Fri 10:07:58 AM 50.8020 24.4030 280° West 433 498 38,000  Level FlightAware ADS-B
Fri 10:08:39 AM 50.8120 24.3040 279° West 432 497 38,000  Level FlightAware ADS-B
Fri 10:09:39 AM 50.8380 24.0900 281° West 431 496 38,000  Level FlightAware ADS-B
Fri 10:10:18 AM 50.8630 23.9720 289° West 430 495 38,000  Level FlightAware ADS-B
Fri 10:10:58 AM 50.8880 23.8530 288° West 429 494 38,000  Level FlightAware ADS-B
Fri 10:11:42 AM 50.9150 23.7220 288° West 429 494 38,000  Level FlightAware ADS-B
Fri 10:12:22 AM 50.9400 23.5990 288° West 430 495 38,000  Level FlightAware ADS-B
Fri 10:13:05 AM 50.9580 23.5100 288° West 431 496 38,000  Level FlightAware ADS-B
Fri 10:13:48 AM 50.9850 23.3750 288° West 431 496 38,000  Level FlightAware ADS-B
Fri 10:14:16 AM 51.0020 23.2940 288° West 432 497 38,000  Level FlightAware ADS-B
Fri 10:14:56 AM 51.0340 23.1330 288° West 430 495 38,000  Level FlightAware ADS-B (KSBY)
Fri 10:15:40 AM 51.0600 23.0010 287° West 432 497 38,000  Level FlightAware ADS-B (KSBY)
Fri 10:16:21 AM 51.0840 22.8790 287° West 432 497 38,000  Level FlightAware ADS-B (KSBY)
Fri 10:16:56 AM 51.0980 22.8070 287° West 432 497 38,000  Level FlightAware ADS-B (KSBY)
Fri 10:17:38 AM 51.1240 22.6770 288° West 431 496 38,000  Level FlightAware ADS-B (KSBY)
Fri 10:18:20 AM 51.1540 22.5200 287° West 429 494 38,000  Level FlightAware ADS-B (KSBY)
Fri 10:18:59 AM 51.1770 22.4010 287° West 428 493 38,000  Level FlightAware ADS-B (KSBY)
Fri 10:19:39 AM 51.2000 22.2810 287° West 427 491 38,000  Level FlightAware ADS-B (KSBY)
Fri 10:20:19 AM 51.2210 22.1730 287° West 426 490 38,000  Level FlightAware ADS-B (KSBY)
Fri 10:21:00 AM 51.2390 22.0750 286° West 426 490 38,000  Level FlightAware ADS-B (KSBY)
Fri 10:21:45 AM 51.2710 21.9060 287° West 424 488 38,000  Level FlightAware ADS-B
Fri 10:22:27 AM 51.2940 21.7800 286° West 425 489 38,000  Level FlightAware ADS-B
Fri 10:23:09 AM 51.3180 21.6520 287° West 426 490 38,000  Level FlightAware ADS-B
Fri 10:23:47 AM 51.3390 21.5360 286° West 427 491 38,000  Level FlightAware ADS-B
Fri 10:24:25 AM 51.3580 21.4320 286° West 425 489 38,000  Level FlightAware ADS-B
Fri 10:25:08 AM 51.3750 21.3390 286° West 425 489 38,000  Level FlightAware ADS-B
Fri 10:25:51 AM 51.4080 21.1600 287° West 427 491 38,000  Level FlightAware ADS-B
Fri 10:26:35 AM 51.4300 21.0340 286° West 428 493 38,000  Level FlightAware ADS-B
Fri 10:27:23 AM 51.4560 20.8820 285° West 429 494 38,000  Level FlightAware ADS-B
Fri 10:28:06 AM 51.4720 20.7530 281° West 429 494 38,000  Level FlightAware ADS-B
Fri 10:28:47 AM 51.4900 20.6200 282° West 430 495 38,000  Level FlightAware ADS-B
Fri 10:29:28 AM 51.5060 20.4940 282° West 430 495 38,000  Level FlightAware ADS-B
Fri 10:30:13 AM 51.5250 20.3550 282° West 431 496 38,000  Level FlightAware ADS-B
Fri 10:30:53 AM 51.5410 20.2280 281° West 432 497 38,000  Level FlightAware ADS-B
Fri 10:31:36 AM 51.5580 20.0950 282° West 432 497 38,000  Level FlightAware ADS-B
Fri 10:32:17 AM 51.5750 19.9650 282° West 432 497 38,000  Level FlightAware ADS-B
Fri 10:32:57 AM 51.5900 19.8400 281° West 431 496 38,000  Level FlightAware ADS-B
Fri 10:33:55 AM 51.6130 19.6630 282° West 429 494 38,000  Level FlightAware ADS-B
Fri 10:34:37 AM 51.6300 19.5250 281° West 431 496 38,000  Level FlightAware ADS-B
Fri 10:35:18 AM 51.6450 19.3980 281° West 433 498 38,000  Level FlightAware ADS-B
Fri 10:35:47 AM 51.6560 19.3060 281° West 434 499 38,000  Level FlightAware ADS-B
Fri 10:36:29 AM 51.6730 19.1700 281° West 436 502 38,000  Level FlightAware ADS-B
Fri 10:37:10 AM 51.6840 19.0730 280° West 437 503 38,000  Level FlightAware ADS-B
Fri 10:37:47 AM 51.6970 18.9630 281° West 439 505 38,000  Level FlightAware ADS-B
Fri 10:38:29 AM 51.7150 18.8160 281° West 441 507 38,000  Level FlightAware ADS-B
Fri 10:39:08 AM 51.7320 18.6660 280° West 443 510 38,000  Level FlightAware ADS-B
Fri 10:39:52 AM 51.7490 18.5160 280° West 443 510 38,000  Level FlightAware ADS-B
Fri 10:40:31 AM 51.7630 18.3970 281° West 443 510 38,000  Level FlightAware ADS-B
Fri 10:41:13 AM 51.7740 18.2990 280° West 443 510 38,000  Level FlightAware ADS-B
Fri 10:41:58 AM 51.7940 18.1170 280° West 444 511 38,000  Level FlightAware ADS-B
Fri 10:42:38 AM 51.8080 17.9850 280° West 441 507 38,000  Level FlightAware ADS-B
Fri 10:43:16 AM 51.8220 17.8600 280° West 440 506 38,000  Level FlightAware ADS-B
Fri 10:44:02 AM 51.8380 17.7130 280° West 440 506 38,000  Level FlightAware ADS-B
Fri 10:44:43 AM 51.8520 17.5810 280° West 439 505 38,000  Level FlightAware ADS-B
Fri 10:45:25 AM 51.8660 17.4430 279° West 438 504 38,000  Level FlightAware ADS-B
Fri 10:46:10 AM 51.8800 17.3080 280° West 437 503 38,000  Level FlightAware ADS-B
Fri 10:46:39 AM 51.8860 17.2490 279° West 437 503 38,000  Level FlightAware ADS-B
Fri 10:47:22 AM 51.9000 17.1120 279° West 436 502 38,000  Level FlightAware ADS-B
Fri 10:48:10 AM 51.9200 16.9120 279° West 437 503 38,000  Level FlightAware ADS-B
Fri 10:48:38 AM 51.9290 16.8200 279° West 438 504 38,000  Level FlightAware ADS-B
Fri 10:49:22 AM 51.9430 16.6830 279° West 438 504 38,000  Level FlightAware ADS-B
Fri 10:50:09 AM 51.9580 16.5270 279° West 439 505 38,000  Level FlightAware ADS-B
Fri 10:50:41 AM 51.9680 16.4190 279° West 439 505 38,000  Level FlightAware ADS-B
Fri 10:51:21 AM 51.9800 16.2910 279° West 438 504 38,000  Level FlightAware ADS-B
Fri 10:51:59 AM 51.9920 16.1650 279° West 439 505 38,000  Level FlightAware ADS-B
Fri 10:53:08 AM 52.0080 15.9920 279° West 439 505 38,000  Level FlightAware ADS-B
Fri 10:53:46 AM 52.0220 15.8370 278° West 438 504 38,000  Level FlightAware ADS-B
Fri 10:54:31 AM 52.0360 15.6750 278° West 438 504 38,000  Level FlightAware ADS-B
Fri 10:55:16 AM 52.0490 15.5280 278° West 439 505 38,000  Level FlightAware ADS-B
Fri 10:55:56 AM 52.0630 15.3950 280° West 436 502 38,000  Level FlightAware ADS-B
Fri 10:56:25 AM 52.0750 15.3200 285° West 437 503 38,000  Level FlightAware ADS-B
Fri 10:57:01 AM 52.0900 15.2290 285° West 438 504 38,000  Level FlightAware ADS-B
Fri 10:57:52 AM 52.1220 15.0280 285° West 438 504 38,000  Level FlightAware ADS-B
Fri 10:58:30 AM 52.1400 14.9090 284° West 437 503 38,000  Level FlightAware ADS-B
Fri 10:59:12 AM 52.1620 14.7740 285° West 437 503 38,000  Level FlightAware ADS-B
Fri 10:59:54 AM 52.1830 14.6390 284° West 437 503 38,000  Level FlightAware ADS-B
Fri 11:00:32 AM 52.1980 14.5420 284° West 437 503 38,000  Level FlightAware ADS-B
Fri 11:01:11 AM 52.2140 14.4370 284° West 438 504 38,000  Level FlightAware ADS-B
Fri 11:01:53 AM 52.2390 14.2620 283° West 442 509 38,000  Level FlightAware ADS-B
Fri 11:02:33 AM 52.2400 14.1290 271° West 448 516 38,000  Level FlightAware ADS-B
Fri 11:03:19 AM 52.2410 13.9740 271° West 447 514 38,000  Level FlightAware ADS-B
Fri 11:04:01 AM 52.2430 13.8320 271° West 449 517 38,000  Level FlightAware ADS-B
Fri 11:04:38 AM 52.2440 13.7100 271° West 451 519 38,000  Level FlightAware ADS-B
Fri 11:05:40 AM 52.2450 13.4960 271° West 456 525 38,000  Level FlightAware ADS-B
Fri 11:06:21 AM 52.2460 13.3480 271° West 457 526 38,000  Level FlightAware ADS-B
Fri 11:07:01 AM 52.2470 13.2110 271° West 458 527 38,000  Level FlightAware ADS-B
Fri 11:07:43 AM 52.2470 13.0700 270° West 458 527 38,000  Level FlightAware ADS-B
Fri 11:08:27 AM 52.2470 12.9210 270° West 459 528 38,000  Level FlightAware ADS-B
Fri 11:09:11 AM 52.2470 12.7630 270° West 460 529 38,000  Level FlightAware ADS-B
Fri 11:09:51 AM 52.2470 12.6260 270° West 458 527 38,000  Level FlightAware ADS-B
Fri 11:10:33 AM 52.2470 12.4810 270° West 457 526 38,000  Level FlightAware ADS-B
Fri 11:11:11 AM 52.2470 12.3670 270° West 457 526 38,000  Level FlightAware ADS-B
Fri 11:11:57 AM 52.2460 12.1950 270° West 457 526 38,000  Level FlightAware ADS-B
Fri 11:12:33 AM 52.2450 12.0690 269° West 458 527 38,000  Level FlightAware ADS-B
Fri 11:13:13 AM 52.2440 11.9300 269° West 459 528 38,000  Level FlightAware ADS-B
Fri 11:13:55 AM 52.2430 11.7870 269° West 460 529 38,000  Level FlightAware ADS-B
Fri 11:14:37 AM 52.2420 11.6420 269° West 463 533 38,000  Level FlightAware ADS-B
Fri 11:15:19 AM 52.2410 11.5120 269° West 465 535 38,000  Level FlightAware ADS-B
Fri 11:15:48 AM 52.2400 11.4420 269° West 466 536 38,000  Level FlightAware ADS-B
Fri 11:16:32 AM 52.2380 11.2890 269° West 466 536 38,000  Level FlightAware ADS-B
Fri 11:17:08 AM 52.2360 11.1580 269° West 466 536 38,000  Level FlightAware ADS-B
Fri 11:17:52 AM 52.2330 10.9610 269° West 466 536 38,000  Level FlightAware ADS-B
Fri 11:18:37 AM 52.2310 10.8050 269° West 465 535 38,000  Level FlightAware ADS-B
Fri 11:19:13 AM 52.2290 10.6810 269° West 466 536 38,000  Level FlightAware ADS-B
Fri 11:21:00 AM 52.2223 10.3608 268° West  Level Estimated
Fri 11:21:21 AM 52.2210 10.3210 268° West 468 539 38,000  Level FlightAware ADS-B
Fri 11:22:01 AM 52.2160 10.0850 268° West 475 547 38,000  Level FlightAware ADS-B
Fri 11:22:43 AM 52.2130 9.9310 268° West 478 550 38,000  Level FlightAware ADS-B
Fri 11:23:28 AM 52.2090 9.7810 268° West 481 554 38,000  Level FlightAware ADS-B
Fri 11:24:08 AM 52.2050 9.6260 268° West 481 554 38,000  Level FlightAware ADS-B (KAPA)
Fri 11:24:48 AM 52.2020 9.5270 267° West 482 555 38,000  Level FlightAware ADS-B
Fri 11:25:30 AM 52.1960 9.3270 267° West 479 551 38,000  Level FlightAware ADS-B
Fri 11:26:12 AM 52.1920 9.1790 268° West 479 551 38,000  Level FlightAware ADS-B
Fri 11:26:54 AM 52.1870 9.0300 267° West 477 549 38,000  Level FlightAware ADS-B
Fri 11:27:28 AM 52.1830 8.9070 267° West 477 549 38,000  Level FlightAware ADS-B
Fri 11:28:06 AM 52.1790 8.7690 267° West 479 551 38,000  Level FlightAware ADS-B
Fri 11:28:50 AM 52.1750 8.6550 267° West 480 552 38,000  Level FlightAware ADS-B
Fri 11:29:37 AM 52.1680 8.4590 267° West 479 551 38,000  Level FlightAware ADS-B
Fri 11:30:21 AM 52.1610 8.2850 266° West 478 550 38,000  Level FlightAware ADS-B
Fri 11:31:01 AM 52.1560 8.1430 267° West 481 554 38,000  Level FlightAware ADS-B
Fri 11:31:39 AM 52.1500 8.0060 266° West 482 555 38,000  Level FlightAware ADS-B
Fri 11:32:26 AM 52.1430 7.8380 266° West 483 556 38,000  Level FlightAware ADS-B
Fri 11:33:05 AM 52.1390 7.7450 266° West 484 557 38,000  Level FlightAware ADS-B (KAPA)
Fri 11:33:54 AM 52.1300 7.5330 266° West 484 557 38,000  Level FlightAware ADS-B
Fri 11:34:29 AM 52.1240 7.3870 266° West 485 558 38,000  Level FlightAware ADS-B
Fri 11:35:11 AM 52.1160 7.2350 265° West 486 559 38,000  Level FlightAware ADS-B
Fri 11:35:51 AM 52.1120 7.1340 266° West 486 559 38,000  Level FlightAware ADS-B
Fri 11:36:27 AM 52.1030 6.9600 265° West 484 557 38,000  Level FlightAware ADS-B
Fri 11:37:13 AM 52.0950 6.7920 266° West 484 557 38,000  Level FlightAware ADS-B
Fri 11:37:53 AM 52.0870 6.6480 265° West 483 556 38,000  Level FlightAware ADS-B
Fri 11:38:37 AM 52.0790 6.4870 265° West 482 555 38,000  Level FlightAware ADS-B
Fri 11:39:17 AM 52.0710 6.3510 265° West 481 554 38,000  Level FlightAware ADS-B
Fri 11:39:58 AM 52.0650 6.2460 265° West 482 555 38,000 -214 Level FlightAware ADS-B
Fri 11:40:41 AM 52.0550 6.0600 265° West 485 558 37,700 -667 Descending FlightAware ADS-B (KAPA)
Fri 11:41:19 AM 52.0460 5.9120 264° West 490 564 37,100 -538 Descending FlightAware ADS-B (KAPA)
Fri 11:41:59 AM 52.0390 5.7860 265° West 485 558 37,000 -74 Descending FlightAware ADS-B (KAPA)
Fri 11:42:40 AM 52.0280 5.6140 264° West 486 559 37,000  Level FlightAware ADS-B
Fri 11:43:15 AM 52.0210 5.4940 265° West 492 566 37,000  Level FlightAware ADS-B
Fri 11:44:10 AM 52.0070 5.2810 264° West 495 570 37,000  Level FlightAware ADS-B
Fri 11:44:54 AM 51.9970 5.1270 264° West 494 568 37,000  Level FlightAware ADS-B
Fri 11:45:34 AM 51.9870 4.9730 264° West 495 570 37,000  Level FlightAware ADS-B
Fri 11:46:18 AM 51.9760 4.8140 264° West 496 571 37,000  Level FlightAware ADS-B
Fri 11:47:02 AM 51.9650 4.6510 264° West 496 571 37,000  Level FlightAware ADS-B
Fri 11:47:38 AM 51.9600 4.5700 264° West 496 571 37,000  Level FlightAware ADS-B
Fri 11:48:17 AM 51.9490 4.4220 263° West 496 571 37,000  Level FlightAware ADS-B
Fri 11:49:02 AM 51.9340 4.2100 264° West 497 572 37,000  Level FlightAware ADS-B
Fri 11:49:48 AM 51.9210 4.0430 263° West 497 572 37,000  Level FlightAware ADS-B
Fri 11:50:28 AM 51.9060 3.8960 261° West 498 573 37,000  Level FlightAware ADS-B
Fri 11:51:14 AM 51.8880 3.7270 260° West 498 573 37,000  Level FlightAware ADS-B
Fri 11:51:49 AM 51.8731 3.5856 260° West 458 527 37,000  Level FlightAware UK
Fri 11:51:52 AM 51.8720 3.5810 260° West 499 574 37,000  Level FlightAware ADS-B
Fri 11:52:31 AM 51.8570 3.4390 260° West 499 574 37,000 -423 Level FlightAware ADS-B
Fri 11:53:03 AM 51.8440 3.3220 260° West 495 570 36,500 -2,000 Descending FlightAware ADS-B
Fri 11:53:37 AM 51.8306 3.1907 260° West 466 536 34,800 -3,000 Descending FlightAware UK
Fri 11:53:47 AM 51.8280 3.1620 260° West 501 577 34,300 -2,640 Descending FlightAware ADS-B
Fri 11:54:27 AM 51.8140 3.0160 261° West 502 578 32,600 -1,756 Descending FlightAware ADS-B
Fri 11:55:09 AM 51.7980 2.8620 261° West 478 550 31,900 -1,043 Descending FlightAware ADS-B
Fri 11:55:13 AM 51.7962 2.8401 261° West 442 509 31,800 -1,333 Descending FlightAware UK
Fri 11:55:45 AM 51.7860 2.7440 261° West 463 533 31,100 -1,667 Descending FlightAware ADS-B
Fri 11:56:25 AM 51.7716 2.5963 261° West 426 490 29,800 -1,902 Descending FlightAware UK
Fri 11:56:26 AM 51.7720 2.6010 261° West 454 522 29,800 -1,674 Level FlightAware ADS-B
Fri 11:57:08 AM 51.7570 2.4600 260° West 446 513 28,600 -1,714 Descending FlightAware ADS-B
Fri 11:57:50 AM 51.7430 2.3290 260° West 439 505 27,400 -1,674 Descending FlightAware ADS-B
Fri 11:58:34 AM 51.7280 2.1930 260° West 430 495 26,200 -1,643 Descending FlightAware ADS-B
Fri 11:59:14 AM 51.7140 2.0610 260° West 418 481 25,100 -1,906 Descending FlightAware ADS-B
Fri 11:59:59 AM 51.6990 1.9250 260° West 413 475 23,500 -2,023 Descending FlightAware ADS-B
Fri 12:00:40 PM 51.6850 1.8020 260° West 404 465 22,200 -1,792 Descending FlightAware ADS-B
Fri 12:01:16 PM 51.6740 1.7060 260° West 399 459 21,200 -1,463 Descending FlightAware ADS-B
Fri 12:02:02 PM 51.6630 1.6020 260° West 390 449 20,200 -1,610 Descending FlightAware ADS-B
Fri 12:02:38 PM 51.6510 1.4990 259° West 384 442 19,000 -1,765 Descending FlightAware ADS-B
Fri 12:03:27 PM 51.6350 1.3680 259° West 371 427 17,700 -1,891 Descending FlightAware ADS-B (KGJT)
Fri 12:04:10 PM 51.6170 1.2180 259° West 365 420 16,100 -1,840 Descending FlightAware ADS-B (KGJT)
Fri 12:04:42 PM 51.6070 1.1310 260° West 359 413 15,400 -892 Descending FlightAware ADS-B (KGJT)
Fri 12:05:24 PM 51.5935 1.0163 260° West 338 389 15,000 -522 Descending FlightAware UK
Fri 12:05:28 PM 51.5930 1.0150 260° West 353 406 15,000 -955 Level FlightAware ADS-B (KGJT)
Fri 12:06:08 PM 51.5810 0.9120 259° West 353 406 14,300 -1,214 Descending FlightAware ADS-B (KGJT)
Fri 12:06:52 PM 51.5670 0.8000 259° West 349 402 13,300 -1,322 Descending FlightAware ADS-B (KGJT)
Fri 12:07:07 PM 51.5615 0.7559 259° West 344 396 13,000 -367 Descending FlightAware ADS-B
Fri 12:07:41 PM 51.5534 0.6745 261° West 340 391 13,000  Level FlightAware ADS-B
Fri 12:07:50 PM 51.5561 0.6512 281° West 327 376 13,000  Level FlightAware ADS-B
Fri 12:07:55 PM 51.5584 0.6393 287° West 322 371 13,000 -571 Level FlightAware ADS-B
Fri 12:08:32 PM 51.5739 0.5576 287° West 320 368 12,600 -783 Descending FlightAware ADS-B
Fri 12:09:04 PM 51.5871 0.4838 286° West 316 364 12,100 -774 Descending FlightAware ADS-B
Fri 12:09:34 PM 51.5990 0.4169 286° West 307 353 11,800 -476 Descending FlightAware ADS-B
Fri 12:10:07 PM 51.6111 0.3494 286° West 285 328 11,600 -571 Descending FlightAware ADS-B
Fri 12:10:37 PM 51.6219 0.2882 286° West 276 318 11,200 -885 Descending FlightAware ADS-B
Fri 12:11:08 PM 51.6326 0.2277 286° West 274 315 10,700 -1,000 Descending FlightAware ADS-B
Fri 12:11:43 PM 51.6445 0.1611 286° West 272 313 10,100 -1,071 Descending FlightAware ADS-B
Fri 12:12:04 PM 51.6447 0.1192 270° West 274 315 9,700 -1,034 Descending FlightAware ADS-B
Fri 12:12:12 PM 51.6398 0.1023 245° Southwest 272 313 9,600 -889 Descending FlightAware ADS-B
Fri 12:12:31 PM 51.6285 0.0713 240° Southwest 273 314 9,300 -857 Descending FlightAware ADS-B
Fri 12:12:47 PM 51.6179 0.0421 240° Southwest 269 310 9,100 -581 Descending FlightAware ADS-B
Fri 12:13:02 PM 51.6086 0.0166 240° Southwest 268 308 9,000 -200 Descending FlightAware ADS-B
Fri 12:13:17 PM 51.5992 -0.0090 239° Southwest 267 307 9,000  Level FlightAware ADS-B
Fri 12:13:32 PM 51.5894 -0.0356 239° Southwest 268 308 9,000  Level FlightAware ADS-B
Fri 12:13:50 PM 51.5785 -0.0655 240° Southwest 268 308 9,000  Level FlightAware ADS-B
Fri 12:14:05 PM 51.5693 -0.0906 239° Southwest 269 310 9,000 -240 Level FlightAware ADS-B
Fri 12:14:15 PM 51.5628 -0.1094 241° Southwest 271 312 8,900 -857 Descending FlightAware ADS-B
Fri 12:14:19 PM 51.5609 -0.1182 251° West 271 312 8,800 -1,091 Descending FlightAware ADS-B
Fri 12:14:26 PM 51.5596 -0.1284 258° West 272 313 8,700 -800 Descending FlightAware ADS-B
Fri 12:14:34 PM 51.5600 -0.1461 272° West 271 312 8,600 -1,286 Descending FlightAware ADS-B
Fri 12:14:40 PM 51.5621 -0.1577 286° West 270 311 8,400 -1,200 Descending FlightAware ADS-B
Fri 12:14:44 PM 51.5644 -0.1653 296° West 269 310 8,400 -1,000 Level FlightAware ADS-B
Fri 12:14:52 PM 51.5694 -0.1764 306° West 267 307 8,200 -1,385 Descending FlightAware ADS-B
Fri 12:14:57 PM 51.5748 -0.1849 316° Northwest 263 303 8,100 -1,000 Descending FlightAware ADS-B
Fri 12:15:04 PM 51.5810 -0.1934 320° Northwest 259 298 8,000 -1,043 Descending FlightAware ADS-B
Fri 12:15:20 PM 51.5950 -0.2124 320° Northwest 257 296 7,700 -1,313 Descending FlightAware ADS-B
Fri 12:15:36 PM 51.6106 -0.2339 319° Northwest 257 296 7,300 -1,154 Descending FlightAware ADS-B
Fri 12:15:46 PM 51.6190 -0.2456 319° Northwest 256 295 7,200 -857 Descending FlightAware ADS-B
Fri 12:15:50 PM 51.6224 -0.2509 316° Northwest 257 296 7,100 -1,500 Descending FlightAware ADS-B
Fri 12:15:54 PM 51.6256 -0.2572 309° West 260 299 7,000 -750 Descending FlightAware ADS-B
Fri 12:15:58 PM 51.6279 -0.2636 300° West 262 302 7,000  Level FlightAware ADS-B
Fri 12:16:01 PM 51.6296 -0.2697 294° West 263 303 7,000  Level FlightAware ADS-B
Fri 12:16:04 PM 51.6305 -0.2746 286° West 264 304 7,000  Level FlightAware ADS-B
Fri 12:16:09 PM 51.6314 -0.2823 281° West 265 305 7,000  Level FlightAware ADS-B
Fri 12:16:17 PM 51.6318 -0.2988 272° West 265 305 7,000  Level FlightAware ADS-B
Fri 12:16:33 PM 51.6310 -0.3294 268° West 264 304 7,000  Level FlightAware ADS-B
Fri 12:16:48 PM 51.6301 -0.3620 267° West 266 306 7,000  Level FlightAware ADS-B
Fri 12:17:04 PM 51.6290 -0.3931 267° West 264 304 7,000  Level FlightAware ADS-B
Fri 12:17:20 PM 51.6282 -0.4221 267° West 264 304 7,000  Level FlightAware ADS-B
Fri 12:17:35 PM 51.6273 -0.4530 267° West 264 304 7,000  Level FlightAware ADS-B
Fri 12:17:50 PM 51.6265 -0.4825 268° West 265 305 7,000  Level FlightAware ADS-B
Fri 12:18:06 PM 51.6257 -0.5116 267° West 262 302 7,000  Level FlightAware ADS-B
Fri 12:18:15 PM 51.6250 -0.5303 267° West 263 303 7,000  Level FlightAware ADS-B
Fri 12:18:21 PM 51.6241 -0.5423 263° West 264 304 7,000  Level FlightAware ADS-B
Fri 12:18:28 PM 51.6225 -0.5563 260° West 265 305 7,000  Level FlightAware ADS-B
Fri 12:18:44 PM 51.6184 -0.5870 258° West 264 304 7,000  Level FlightAware ADS-B
Fri 12:19:02 PM 51.6139 -0.6207 258° West 264 304 7,000  Level FlightAware ADS-B
Fri 12:19:17 PM 51.6102 -0.6493 258° West 263 303 7,000  Level FlightAware ADS-B
Fri 12:19:33 PM 51.6061 -0.6799 258° West 265 305 7,000  Level FlightAware ADS-B
Fri 12:19:45 PM 51.6029 -0.7030 257° West 264 304 7,000  Level FlightAware ADS-B
Fri 12:20:01 PM 51.5975 -0.7339 254° West 263 303 7,000 -375 Level FlightAware ADS-B
Fri 12:20:17 PM 51.5922 -0.7630 254° West 262 302 6,800 -1,071 Descending FlightAware ADS-B
Fri 12:20:29 PM 51.5879 -0.7858 253° West 264 304 6,500 -857 Descending FlightAware ADS-B
Fri 12:20:45 PM 51.5821 -0.8154 253° West 260 299 6,400 -581 Descending FlightAware ADS-B
Fri 12:21:00 PM 51.5770 -0.8420 253° West 250 288 6,200 -581 Descending FlightAware ADS-B
Fri 12:21:16 PM 51.5720 -0.8684 253° West 240 276 6,100 -387 Descending FlightAware ADS-B
Fri 12:21:31 PM 51.5668 -0.8953 253° West 231 266 6,000 -400 Descending FlightAware ADS-B
Fri 12:21:46 PM 51.5622 -0.9191 253° West 220 253 5,900 -500 Descending FlightAware ADS-B
Fri 12:21:55 PM 51.5594 -0.9329 252° West 213 245 5,800 -923 Descending FlightAware ADS-B
Fri 12:21:59 PM 51.5577 -0.9387 244° Southwest 213 245 5,700 -750 Descending FlightAware ADS-B
Fri 12:22:03 PM 51.5562 -0.9427 239° Southwest 212 244 5,700 -667 Level FlightAware ADS-B
Fri 12:22:08 PM 51.5530 -0.9482 227° Southwest 211 243 5,600 -1,500 Descending FlightAware ADS-B
Fri 12:22:11 PM 51.5505 -0.9516 220° Southwest 209 241 5,500 -2,000 Descending FlightAware ADS-B
Fri 12:22:14 PM 51.5473 -0.9545 209° Southwest 207 238 5,400 -1,714 Descending FlightAware ADS-B
Fri 12:22:18 PM 51.5442 -0.9563 201° Southwest 205 236 5,300 -750 Descending FlightAware ADS-B
Fri 12:22:22 PM 51.5397 -0.9580 193° South 204 235 5,300 -667 Level FlightAware ADS-B
Fri 12:22:27 PM 51.5359 -0.9588 187° South 204 235 5,200 -1,200 Descending FlightAware ADS-B
Fri 12:22:37 PM 51.5259 -0.9599 184° South 205 236 5,000 -750 Descending FlightAware ADS-B
Fri 12:22:43 PM 51.5204 -0.9600 180° South 200 230 5,000 -600 Level FlightAware ADS-B
Fri 12:22:47 PM 51.5168 -0.9590 171° South 195 224 4,900 -750 Descending FlightAware ADS-B
Fri 12:22:51 PM 51.5138 -0.9575 163° South 193 222 4,900 -750 Level FlightAware ADS-B
Fri 12:22:55 PM 51.5108 -0.9549 152° Southeast 191 220 4,800 -667 Descending FlightAware ADS-B
Fri 12:23:00 PM 51.5071 -0.9500 141° Southeast 190 219 4,800  Level FlightAware ADS-B
Fri 12:23:03 PM 51.5052 -0.9463 129° Southeast 191 220 4,800 -857 Level FlightAware ADS-B
Fri 12:23:07 PM 51.5031 -0.9414 125° Southeast 188 216 4,700 -667 Descending FlightAware ADS-B
Fri 12:23:21 PM 51.4973 -0.9245 119° Southeast 186 214 4,600 -600 Descending FlightAware ADS-B
Fri 12:23:37 PM 51.4911 -0.9048 117° Southeast 186 214 4,400 -581 Descending FlightAware ADS-B
Fri 12:23:52 PM 51.4855 -0.8868 117° Southeast 186 214 4,300 -429 Descending FlightAware ADS-B
Fri 12:24:05 PM 51.4809 -0.8716 116° Southeast 184 212 4,200 -353 Descending FlightAware ADS-B
Fri 12:24:09 PM 51.4795 -0.8657 111° Southeast 184 212 4,200  Level FlightAware ADS-B
Fri 12:24:12 PM 51.4787 -0.8616 107° East 184 212 4,200 -667 Level FlightAware ADS-B
Fri 12:24:18 PM 51.4775 -0.8531 103° East 182 209 4,100 -500 Descending FlightAware ADS-B
Fri 12:24:24 PM 51.4768 -0.8450 98° East 180 207 4,100  Level FlightAware ADS-B
Fri 12:24:28 PM 51.4766 -0.8415 95° East 179 206 4,100 -857 Level FlightAware ADS-B
Fri 12:24:31 PM 51.4763 -0.8373 96° East 179 206 4,000 -800 Descending FlightAware ADS-B
Fri 12:24:43 PM 51.4758 -0.8200 93° East 181 208 3,900 -818 Descending FlightAware ADS-B
Fri 12:24:53 PM 51.4758 -0.8079 90° East 184 212 3,700 -1,000 Descending FlightAware ADS-B
Fri 12:25:01 PM 51.4760 -0.7959 88° East 184 212 3,600 -783 Descending FlightAware ADS-B
Fri 12:25:16 PM 51.4762 -0.7766 89° East 181 208 3,400 -1,200 Descending FlightAware ADS-B
Fri 12:25:31 PM 51.4762 -0.7552 90° East 176 203 3,000 -1,034 Descending FlightAware ADS-B
Fri 12:25:45 PM 51.4763 -0.7387 89° East 175 201 2,900 -783 Descending FlightAware ADS-B
Fri 12:25:54 PM 51.4764 -0.7264 89° East 177 204 2,700 -1,000 Descending FlightAware ADS-B
Fri 12:26:09 PM 51.4765 -0.7062 90° East 175 201 2,500 -889 Descending FlightAware ADS-B
Fri 12:26:21 PM 51.4766 -0.6906 89° East 168 193 2,300 -818 Descending FlightAware ADS-B
Fri 12:26:31 PM 51.4767 -0.6795 89° East 161 185 2,200 -1,000 Descending FlightAware ADS-B
Fri 12:26:39 PM 51.4767 -0.6696 90° East 160 184 2,000 -1,091 Descending FlightAware ADS-B
Fri 12:26:53 PM 51.4769 -0.6533 89° East 162 186 1,800 -783 Descending FlightAware ADS-B
Fri 12:27:02 PM 51.4768 -0.6427 91° East 158 182 1,700 -783 Descending FlightAware ADS-B
Fri 12:27:16 PM 51.4769 -0.6265 89° East 155 178 1,500 -857 Descending FlightAware ADS-B
Fri 12:27:23 PM 51.4770 -0.6178 89° East 153 176 1,400 -783 Descending FlightAware ADS-B
Fri 12:27:39 PM 51.4770 -0.6010 90° East 152 175 1,200 -811 Descending FlightAware ADS-B
Fri 12:28:00 PM 51.4772 -0.5774 89° East 145 167 900 -545 Descending FlightAware ADS-B
Fri 12:28:34 PM 51.4770 -0.5570 91° East 132 152 700 -353 Descending FlightAware ADS-B
Fri 12:29:18 PM 51.4770 -0.5040 90° East 134 154 -955 Descending FlightAware ADS-B
Fri 12:29:40 PM 51.4770 -0.4880 90° East 134 154  Level FlightAware ADS-B
Fri 12:32:00 PM 51.4775 -0.4614 88° East  Level Estimated
Fri 12:33:00 PM 51.4775 -0.4614 90° East  Level Estimated
Fri 12:34:00 PM 51.4775 -0.4614 90° East  Level Estimated
Fri 12:35:00 PM 51.4775 -0.4614 90° East  Level Estimated
Fri 12:36:00 PM 51.4775 -0.4614 90° East  Level Estimated
Fri 12:37:00 PM 51.4775 -0.4614 90° East  Level Estimated
Fri 12:38:00 PM 51.4775 -0.4614 90° East  Level Estimated
Fri 12:39:00 PM 51.4775 -0.4614 90° East  Level Estimated
Fri 12:40:00 PM 51.4775 -0.4614 90° East  Level Estimated
Fri 12:41:00 PM 51.4775 -0.4614 90° East  Level Estimated
Fri 12:42:00 PM 51.4775 -0.4614 90° East  Level Estimated
Fri 12:43:00 PM 51.4775 -0.4614 90° East  Level Estimated
Fri 12:44:00 PM 51.4775 -0.4614 90° East  Level Estimated
Fri 12:45:00 PM 51.4775 -0.4614 90° East  Level Estimated

Login

Don't have an account? Register now (free) for customized features, flight alerts, and more!